createdAt,value
2019-05-19T00:00:43.047Z,11.80
2019-05-19T00:03:11.537Z,11.80
2019-05-19T00:05:40.074Z,11.80
2019-05-19T00:08:08.551Z,11.80
2019-05-19T00:10:37.112Z,11.80
2019-05-19T00:13:05.723Z,11.70
2019-05-19T00:15:34.366Z,11.80
2019-05-19T00:18:02.908Z,11.70
2019-05-19T00:20:31.483Z,11.70
2019-05-19T00:22:59.979Z,11.70
2019-05-19T00:25:28.760Z,11.70
2019-05-19T00:27:57.307Z,11.70
2019-05-19T00:30:25.866Z,11.70
2019-05-19T00:32:54.338Z,11.70
2019-05-19T00:35:22.911Z,11.70
2019-05-19T00:37:51.461Z,11.70
2019-05-19T00:40:20.116Z,11.70
2019-05-19T00:42:48.597Z,11.80
2019-05-19T00:45:17.244Z,11.80
2019-05-19T00:47:45.856Z,11.80
2019-05-19T00:50:14.595Z,11.70
2019-05-19T00:52:43.142Z,11.70
2019-05-19T00:55:11.781Z,11.70
2019-05-19T00:57:40.495Z,11.60
2019-05-19T01:00:09.801Z,11.60
2019-05-19T01:02:38.331Z,11.60
2019-05-19T01:05:07.940Z,11.60
2019-05-19T01:07:36.882Z,11.60
2019-05-19T01:10:07.585Z,11.60
2019-05-19T01:12:36.123Z,11.70
2019-05-19T01:15:06.649Z,11.70
2019-05-19T01:17:35.192Z,11.80
2019-05-19T01:20:04.826Z,11.80
2019-05-19T01:22:33.305Z,11.80
2019-05-19T01:25:01.892Z,11.80
2019-05-19T01:27:30.411Z,11.90
2019-05-19T01:29:58.893Z,11.90
2019-05-19T01:32:27.533Z,11.80
2019-05-19T01:34:56.032Z,11.70
2019-05-19T01:37:24.557Z,11.60
2019-05-19T01:39:53.112Z,11.70
2019-05-19T01:42:21.584Z,11.60
2019-05-19T01:44:50.077Z,11.80
2019-05-19T01:47:18.544Z,11.80
2019-05-19T01:49:47.036Z,11.90
2019-05-19T01:52:15.507Z,11.70
2019-05-19T01:54:44.002Z,11.60
2019-05-19T01:57:12.541Z,11.60
2019-05-19T01:59:41.180Z,11.70
2019-05-19T02:02:09.653Z,11.70
2019-05-19T02:04:38.152Z,11.80
2019-05-19T02:07:06.711Z,11.60
2019-05-19T02:09:35.272Z,11.60
2019-05-19T02:12:03.929Z,11.70
2019-05-19T02:14:32.398Z,11.60
2019-05-19T02:17:00.970Z,11.60
2019-05-19T02:19:29.446Z,11.70
2019-05-19T02:21:58.014Z,11.60
2019-05-19T02:24:26.485Z,11.60
2019-05-19T02:26:54.975Z,11.60
2019-05-19T02:29:23.513Z,11.50
2019-05-19T02:31:52.023Z,11.60
2019-05-19T02:34:20.574Z,11.60
2019-05-19T02:36:49.138Z,11.40
2019-05-19T02:39:17.761Z,11.10
2019-05-19T02:41:49.161Z,11.10
2019-05-19T02:44:19.697Z,11.00
2019-05-19T02:46:50.807Z,10.90
2019-05-19T02:49:20.297Z,10.70
2019-05-19T02:51:51.143Z,10.70
2019-05-19T02:54:20.833Z,10.80
2019-05-19T02:56:50.649Z,11.00
2019-05-19T02:59:20.439Z,11.00
2019-05-19T03:02:02.497Z,11.00
2019-05-19T03:04:31.047Z,11.10
2019-05-19T03:06:59.681Z,11.10
2019-05-19T03:09:28.304Z,11.10
2019-05-19T03:11:56.867Z,11.10
2019-05-19T03:14:25.339Z,11.10
2019-05-19T03:16:53.837Z,11.10
2019-05-19T03:19:22.508Z,11.20
2019-05-19T03:21:51.023Z,11.00
2019-05-19T03:24:19.573Z,10.70
2019-05-19T03:26:48.543Z,10.60
2019-05-19T03:29:18.733Z,10.80
2019-05-19T03:32:03.786Z,10.90
2019-05-19T03:34:32.349Z,11.00
2019-05-19T03:37:00.922Z,11.00
2019-05-19T03:39:29.484Z,11.10
2019-05-19T03:41:58.053Z,11.10
2019-05-19T03:44:26.605Z,11.10
2019-05-19T03:46:55.173Z,11.20
2019-05-19T03:49:23.651Z,11.20
2019-05-19T03:51:52.153Z,11.20
2019-05-19T03:54:20.700Z,11.40
2019-05-19T03:56:49.276Z,11.40
2019-05-19T03:59:17.835Z,11.40
2019-05-19T04:01:46.412Z,11.50
2019-05-19T04:04:14.956Z,11.50
2019-05-19T04:06:43.531Z,11.50
2019-05-19T04:09:12.094Z,11.10
2019-05-19T04:11:40.665Z,11.10
2019-05-19T04:14:09.218Z,11.40
2019-05-19T04:16:37.768Z,11.60
2019-05-19T04:19:06.353Z,11.70
2019-05-19T04:21:48.397Z,11.70
2019-05-19T04:24:05.116Z,11.70
2019-05-19T04:26:33.664Z,11.80
2019-05-19T04:29:02.250Z,11.80
2019-05-19T04:31:30.818Z,11.60
2019-05-19T04:33:59.379Z,11.60
2019-05-19T04:36:27.944Z,11.40
2019-05-19T04:38:56.509Z,11.40
2019-05-19T04:41:24.992Z,11.50
2019-05-19T04:43:53.570Z,11.50
2019-05-19T04:46:22.121Z,11.40
2019-05-19T04:48:50.625Z,11.40
2019-05-19T04:51:19.182Z,11.30
2019-05-19T04:53:47.754Z,11.60
2019-05-19T04:56:19.522Z,11.80
2019-05-19T04:58:46.531Z,11.70
2019-05-19T05:01:15.085Z,11.80
2019-05-19T05:03:43.595Z,11.90
2019-05-19T05:06:12.162Z,11.90
2019-05-19T05:08:40.804Z,12.00
2019-05-19T05:11:09.377Z,12.10
2019-05-19T05:13:37.877Z,11.90
2019-05-19T05:16:06.366Z,11.90
2019-05-19T05:18:34.881Z,12.00
2019-05-19T05:21:03.433Z,12.30
2019-05-19T05:23:32.010Z,12.50
2019-05-19T05:26:00.498Z,12.70
2019-05-19T05:28:28.997Z,12.90
2019-05-19T05:30:57.476Z,13.20
2019-05-19T05:33:26.062Z,13.20
2019-05-19T05:35:54.601Z,13.40
2019-05-19T05:38:23.168Z,13.50
2019-05-19T05:40:51.672Z,13.60
2019-05-19T05:43:20.177Z,13.80
2019-05-19T05:45:48.658Z,13.80
2019-05-19T05:48:17.229Z,14.10
2019-05-19T05:50:45.788Z,13.90
2019-05-19T05:53:14.373Z,13.80
2019-05-19T05:55:42.924Z,13.60
2019-05-19T05:58:11.502Z,13.60
2019-05-19T06:00:39.973Z,13.50
2019-05-19T06:03:08.471Z,13.10
2019-05-19T06:05:37.019Z,13.00
2019-05-19T06:08:05.598Z,12.90
2019-05-19T06:10:34.232Z,12.60
2019-05-19T06:13:02.713Z,12.70
2019-05-19T06:15:31.232Z,12.70
2019-05-19T06:17:59.843Z,12.90
2019-05-19T06:20:28.414Z,13.10
2019-05-19T06:22:57.355Z,13.10
2019-05-19T06:25:26.155Z,13.00
2019-05-19T06:27:54.755Z,13.30
2019-05-19T06:30:23.331Z,13.40
2019-05-19T06:32:55.945Z,13.40
2019-05-19T06:35:25.207Z,13.20
2019-05-19T06:37:53.762Z,13.50
2019-05-19T06:40:22.483Z,14.30
2019-05-19T06:42:51.034Z,15.10
2019-05-19T06:45:19.849Z,15.40
2019-05-19T06:47:48.331Z,15.80
2019-05-19T06:50:17.178Z,16.00
2019-05-19T06:52:45.730Z,16.10
2019-05-19T06:55:14.628Z,16.50
2019-05-19T06:57:43.177Z,16.70
2019-05-19T07:00:12.437Z,17.10
2019-05-19T07:02:41.079Z,17.70
2019-05-19T07:05:09.770Z,17.30
2019-05-19T07:07:38.250Z,17.30
2019-05-19T07:10:08.200Z,17.50
2019-05-19T07:12:36.748Z,18.20
2019-05-19T07:15:09.022Z,18.10
2019-05-19T07:17:37.505Z,17.70
2019-05-19T07:20:06.245Z,17.20
2019-05-19T07:22:37.603Z,17.40
2019-05-19T07:25:07.285Z,17.50
2019-05-19T07:27:35.765Z,16.60
2019-05-19T07:30:08.468Z,16.20
2019-05-19T07:32:36.950Z,16.90
2019-05-19T07:35:06.857Z,17.10
2019-05-19T07:37:35.330Z,17.10
2019-05-19T07:40:05.059Z,17.60
2019-05-19T07:42:33.687Z,17.80
2019-05-19T07:45:02.257Z,17.90
2019-05-19T07:47:30.810Z,19.60
2019-05-19T07:49:59.314Z,20.90
2019-05-19T07:52:27.871Z,19.50
2019-05-19T07:54:56.437Z,19.30
2019-05-19T07:57:24.905Z,20.70
2019-05-19T07:59:53.409Z,22.00
2019-05-19T08:02:21.980Z,22.50
2019-05-19T08:04:50.544Z,21.70
2019-05-19T08:07:19.070Z,22.70
2019-05-19T08:09:47.597Z,21.90
2019-05-19T08:12:16.246Z,20.90
2019-05-19T08:14:44.818Z,21.10
2019-05-19T08:17:13.437Z,21.40
2019-05-19T08:19:42.018Z,20.50
2019-05-19T08:22:10.557Z,20.50
2019-05-19T08:24:39.030Z,21.30
2019-05-19T08:27:07.517Z,21.60
2019-05-19T08:29:35.993Z,20.50
2019-05-19T08:32:04.557Z,19.80
2019-05-19T08:34:33.110Z,20.30
2019-05-19T08:37:02.497Z,19.50
2019-05-19T08:39:31.049Z,19.60
2019-05-19T08:41:59.614Z,19.20
2019-05-19T08:44:28.171Z,18.90
2019-05-19T08:46:56.764Z,20.50
2019-05-19T08:49:25.379Z,20.20
2019-05-19T08:51:53.900Z,20.10
2019-05-19T08:54:22.689Z,21.10
2019-05-19T08:56:51.273Z,21.50
2019-05-19T08:59:19.846Z,21.80
2019-05-19T09:01:48.428Z,21.40
2019-05-19T09:04:16.967Z,20.70
2019-05-19T09:06:45.545Z,20.80
2019-05-19T09:09:14.099Z,19.30
2019-05-19T09:11:42.679Z,19.40
2019-05-19T09:14:11.225Z,18.60
2019-05-19T09:16:39.813Z,18.80
2019-05-19T09:19:08.362Z,18.10
2019-05-19T09:21:36.953Z,18.00
2019-05-19T09:24:05.507Z,18.80
2019-05-19T09:26:34.321Z,19.20
2019-05-19T09:29:02.873Z,20.10
2019-05-19T09:31:31.693Z,21.00
2019-05-19T09:34:01.874Z,21.50
2019-05-19T09:36:30.449Z,21.90
2019-05-19T09:38:58.996Z,22.30
2019-05-19T09:41:27.565Z,21.90
2019-05-19T09:43:57.149Z,21.30
2019-05-19T09:46:25.670Z,22.20
2019-05-19T09:49:11.880Z,21.80
2019-05-19T09:51:40.448Z,21.70
2019-05-19T09:54:08.998Z,20.70
2019-05-19T09:56:37.577Z,20.90
2019-05-19T09:59:06.129Z,20.50
2019-05-19T10:01:34.675Z,22.50
2019-05-19T10:04:03.227Z,23.10
2019-05-19T10:06:31.801Z,23.10
2019-05-19T10:09:01.949Z,23.90
2019-05-19T10:11:36.440Z,23.50
2019-05-19T10:14:05.416Z,24.80
2019-05-19T10:16:33.910Z,24.00
2019-05-19T10:19:02.706Z,24.00
2019-05-19T10:21:31.278Z,24.90
2019-05-19T10:23:59.836Z,24.40
2019-05-19T10:26:28.396Z,24.60
2019-05-19T10:28:56.873Z,25.30
2019-05-19T10:31:25.448Z,25.50
2019-05-19T10:33:54.001Z,23.70
2019-05-19T10:36:22.550Z,23.40
2019-05-19T10:38:51.117Z,24.30
2019-05-19T10:41:19.608Z,23.60
2019-05-19T10:43:49.809Z,21.60
2019-05-19T10:46:18.352Z,22.70
2019-05-19T10:48:46.851Z,22.50
2019-05-19T10:51:15.405Z,22.60
2019-05-19T10:53:43.893Z,23.90
2019-05-19T10:56:12.433Z,23.40
2019-05-19T10:58:41.013Z,24.90
2019-05-19T11:01:09.663Z,23.60
2019-05-19T11:03:38.211Z,23.30
2019-05-19T11:06:06.765Z,24.60
2019-05-19T11:08:35.253Z,23.90
2019-05-19T11:11:03.735Z,24.80
2019-05-19T11:13:32.412Z,24.80
2019-05-19T11:16:00.968Z,23.90
2019-05-19T11:20:57.794Z,22.40
2019-05-19T11:23:26.299Z,23.70
2019-05-19T11:25:54.905Z,24.60
2019-05-19T11:28:23.489Z,24.60
2019-05-19T11:30:52.047Z,24.40
2019-05-19T11:33:20.615Z,24.30
2019-05-19T11:35:49.241Z,24.10
2019-05-19T11:38:17.803Z,23.80
2019-05-19T11:40:46.361Z,23.30
2019-05-19T11:43:15.135Z,24.20
2019-05-19T11:45:43.686Z,23.60
2019-05-19T11:48:12.265Z,23.70
2019-05-19T11:50:42.207Z,24.30
2019-05-19T11:53:10.890Z,23.80
2019-05-19T11:55:39.440Z,22.60
2019-05-19T11:58:08.023Z,22.40
2019-05-19T12:00:36.578Z,22.60
2019-05-19T12:03:05.065Z,24.10
2019-05-19T12:05:33.717Z,24.70
2019-05-19T12:08:02.274Z,23.70
2019-05-19T12:10:30.839Z,24.50
2019-05-19T12:12:59.438Z,25.60
2019-05-19T12:15:27.996Z,25.30
2019-05-19T12:17:56.569Z,23.60
2019-05-19T12:20:25.124Z,22.90
2019-05-19T12:22:53.708Z,22.40
2019-05-19T12:25:22.277Z,21.70
2019-05-19T12:27:50.898Z,21.50
2019-05-19T12:30:21.311Z,21.10
2019-05-19T12:32:49.969Z,21.00
2019-05-19T12:35:18.754Z,21.40
2019-05-19T12:37:47.325Z,21.60
2019-05-19T12:40:16.130Z,21.20
2019-05-19T12:42:44.690Z,21.60
2019-05-19T12:45:13.702Z,22.40
2019-05-19T12:47:44.198Z,22.30
2019-05-19T12:50:13.400Z,22.80
2019-05-19T12:52:43.166Z,23.80
2019-05-19T12:55:12.076Z,24.60
2019-05-19T12:57:40.650Z,25.20
2019-05-19T13:00:09.894Z,25.50
2019-05-19T13:02:38.589Z,25.80
2019-05-19T13:05:07.538Z,25.60
2019-05-19T13:07:36.084Z,25.70
2019-05-19T13:10:06.401Z,25.80
2019-05-19T13:12:34.962Z,25.60
2019-05-19T13:15:05.611Z,25.90
2019-05-19T13:17:34.238Z,25.30
2019-05-19T13:20:02.962Z,25.30
2019-05-19T13:22:31.465Z,25.20
2019-05-19T13:25:00.080Z,25.00
2019-05-19T13:27:28.638Z,22.40
2019-05-19T13:29:57.212Z,24.40
2019-05-19T13:32:25.892Z,24.50
2019-05-19T13:34:54.470Z,24.70
2019-05-19T13:37:23.014Z,24.60
2019-05-19T13:39:51.606Z,24.20
2019-05-19T13:42:20.173Z,24.20
2019-05-19T13:44:48.813Z,23.40
2019-05-19T13:47:17.291Z,24.30
2019-05-19T13:49:45.994Z,24.50
2019-05-19T13:52:14.482Z,23.40
2019-05-19T13:54:43.278Z,23.20
2019-05-19T13:57:12.890Z,23.20
2019-05-19T13:59:41.507Z,22.80
2019-05-19T14:02:10.126Z,22.80
2019-05-19T14:04:38.696Z,22.40
2019-05-19T14:07:07.250Z,22.00
2019-05-19T14:09:35.821Z,21.80
2019-05-19T14:12:04.440Z,22.10
2019-05-19T14:14:33.018Z,22.30
2019-05-19T14:17:01.582Z,22.10
2019-05-19T14:19:30.083Z,22.00
2019-05-19T14:21:58.636Z,21.70
2019-05-19T14:24:27.211Z,21.80
2019-05-19T14:26:55.768Z,21.70
2019-05-19T14:29:24.362Z,21.50
2019-05-19T14:31:52.922Z,21.40
2019-05-19T14:34:21.564Z,21.20
2019-05-19T14:36:50.132Z,21.00
2019-05-19T14:39:18.683Z,20.40
2019-05-19T14:41:48.885Z,19.60
2019-05-19T14:44:17.365Z,19.70
2019-05-19T14:46:45.939Z,19.60
2019-05-19T14:49:14.481Z,19.30
2019-05-19T14:51:43.013Z,17.80
2019-05-19T14:54:11.551Z,17.20
2019-05-19T14:56:40.132Z,17.50
2019-05-19T14:59:08.730Z,17.20
2019-05-19T15:01:37.495Z,16.70
2019-05-19T15:04:06.064Z,16.30
2019-05-19T15:06:34.601Z,16.10
2019-05-19T15:09:03.812Z,15.90
2019-05-19T15:11:32.537Z,15.90
2019-05-19T15:14:01.104Z,16.10
2019-05-19T15:16:29.739Z,16.10
2019-05-19T15:18:58.957Z,16.00
2019-05-19T15:21:27.529Z,16.10
2019-05-19T15:23:56.077Z,16.10
2019-05-19T15:26:24.596Z,16.10
2019-05-19T15:28:53.133Z,16.10
2019-05-19T15:31:21.698Z,16.10
2019-05-19T15:33:53.066Z,16.30
2019-05-19T15:36:24.414Z,16.50
2019-05-19T15:38:52.881Z,16.60
2019-05-19T15:41:21.466Z,16.70
2019-05-19T15:43:50.026Z,16.70
2019-05-19T15:46:18.678Z,16.80
2019-05-19T15:48:47.149Z,16.80
2019-05-19T15:51:27.521Z,17.00
2019-05-19T15:53:45.923Z,16.80
2019-05-19T15:56:14.485Z,16.80
2019-05-19T15:58:43.041Z,17.00
2019-05-19T16:01:11.541Z,17.20
2019-05-19T16:03:40.101Z,17.20
2019-05-19T16:06:08.664Z,17.20
2019-05-19T16:08:37.225Z,17.10
2019-05-19T16:11:05.782Z,17.10
2019-05-19T16:13:34.269Z,17.10
2019-05-19T16:16:02.855Z,17.10
2019-05-19T16:18:31.412Z,17.20
2019-05-19T16:20:59.961Z,17.30
2019-05-19T16:23:28.467Z,17.40
2019-05-19T16:25:57.019Z,17.40
2019-05-19T16:28:30.687Z,17.50
2019-05-19T16:30:55.729Z,17.50
2019-05-19T16:33:24.310Z,17.60
2019-05-19T16:35:52.873Z,17.50
2019-05-19T16:38:21.445Z,17.30
2019-05-19T16:40:49.924Z,17.30
2019-05-19T16:43:18.486Z,17.20
2019-05-19T16:45:47.429Z,16.90
2019-05-19T16:48:16.096Z,16.70
2019-05-19T16:50:44.643Z,16.60
2019-05-19T16:53:13.334Z,16.20
2019-05-19T16:55:41.893Z,16.40
2019-05-19T16:58:20.548Z,16.60
2019-05-19T17:00:40.587Z,16.80
2019-05-19T17:03:09.157Z,17.00
2019-05-19T17:05:37.713Z,16.80
2019-05-19T17:08:06.417Z,16.50
2019-05-19T17:10:35.146Z,16.80
2019-05-19T17:13:03.718Z,17.00
2019-05-19T17:15:32.201Z,17.30
2019-05-19T17:18:01.008Z,17.30
2019-05-19T17:20:31.037Z,17.50
2019-05-19T17:22:59.720Z,17.50
2019-05-19T17:25:28.336Z,17.50
2019-05-19T17:27:59.602Z,17.60
2019-05-19T17:30:27.128Z,17.60
2019-05-19T17:32:55.696Z,17.60
2019-05-19T17:35:24.321Z,17.50
2019-05-19T17:37:52.978Z,17.50
2019-05-19T17:40:21.777Z,17.60
2019-05-19T17:42:50.610Z,17.60
2019-05-19T17:45:19.221Z,17.60
2019-05-19T17:47:47.721Z,17.60
2019-05-19T17:50:19.332Z,17.60
2019-05-19T17:52:47.845Z,17.50
2019-05-19T17:55:16.534Z,17.50
2019-05-19T17:57:46.052Z,17.40
2019-05-19T18:00:16.242Z,17.30
2019-05-19T18:02:44.732Z,17.20
2019-05-19T18:05:13.350Z,17.20
2019-05-19T18:07:41.931Z,17.20
2019-05-19T18:10:10.666Z,17.20
2019-05-19T18:12:39.235Z,17.20
2019-05-19T18:15:07.941Z,17.20
2019-05-19T18:17:36.438Z,17.20
2019-05-19T18:20:06.666Z,17.20
2019-05-19T18:22:35.244Z,16.90
2019-05-19T18:25:04.632Z,16.60
2019-05-19T18:27:33.230Z,16.40
2019-05-19T18:30:01.796Z,16.20
2019-05-19T18:32:30.340Z,16.20
2019-05-19T18:34:58.841Z,16.30
2019-05-19T18:37:27.411Z,16.20
2019-05-19T18:39:55.982Z,16.10
2019-05-19T18:42:24.776Z,16.20
2019-05-19T18:44:53.412Z,15.70
2019-05-19T18:47:21.886Z,15.90
2019-05-19T18:49:50.381Z,16.00
2019-05-19T18:52:18.927Z,16.10
2019-05-19T18:54:47.493Z,16.10
2019-05-19T18:57:16.061Z,16.10
2019-05-19T18:59:47.513Z,16.00
2019-05-19T19:02:15.241Z,16.20
2019-05-19T19:04:43.737Z,16.30
2019-05-19T19:07:12.289Z,16.30
2019-05-19T19:09:40.862Z,16.10
2019-05-19T19:12:09.425Z,15.80
2019-05-19T19:14:37.990Z,15.60
2019-05-19T19:17:06.605Z,15.40
2019-05-19T19:19:35.345Z,15.30
2019-05-19T19:22:03.894Z,15.30
2019-05-19T19:24:32.455Z,15.30
2019-05-19T19:27:00.927Z,15.40
2019-05-19T19:29:29.748Z,15.40
2019-05-19T19:31:58.299Z,15.40
2019-05-19T19:34:26.869Z,15.40
2019-05-19T19:36:55.417Z,15.50
2019-05-19T19:39:23.985Z,15.70
2019-05-19T19:41:52.448Z,15.70
2019-05-19T19:44:20.945Z,15.60
2019-05-19T19:46:49.430Z,15.40
2019-05-19T19:49:17.997Z,15.30
2019-05-19T19:51:46.537Z,15.30
2019-05-19T19:54:15.034Z,15.40
2019-05-19T19:56:43.829Z,15.50
2019-05-19T19:59:12.334Z,15.70
2019-05-19T20:01:40.883Z,15.50
2019-05-19T20:04:11.387Z,15.60
2019-05-19T20:06:39.672Z,15.70
2019-05-19T20:09:08.285Z,15.60
2019-05-19T20:11:36.849Z,15.20
2019-05-19T20:14:05.865Z,15.40
2019-05-19T20:16:34.433Z,15.50
2019-05-19T20:19:02.912Z,15.20
2019-05-19T20:21:31.490Z,15.30
2019-05-19T20:23:59.975Z,15.40
2019-05-19T20:26:28.556Z,15.40
2019-05-19T20:28:57.109Z,15.40
2019-05-19T20:31:25.854Z,15.20
2019-05-19T20:33:54.402Z,15.00
2019-05-19T20:36:22.992Z,14.90
2019-05-19T20:38:51.530Z,14.70
2019-05-19T20:41:20.165Z,14.80
2019-05-19T20:43:48.709Z,14.90
2019-05-19T20:46:17.205Z,15.00
2019-05-19T20:48:45.682Z,15.00
2019-05-19T20:51:14.245Z,15.00
2019-05-19T20:53:42.709Z,14.90
2019-05-19T20:56:11.207Z,14.70
2019-05-19T20:58:39.749Z,14.60
2019-05-19T21:01:08.240Z,14.60
2019-05-19T21:03:36.717Z,14.50
2019-05-19T21:06:05.290Z,14.50
2019-05-19T21:08:33.839Z,14.40
2019-05-19T21:11:02.409Z,14.30
2019-05-19T21:13:30.891Z,14.50
2019-05-19T21:15:59.462Z,14.60
2019-05-19T21:18:28.027Z,14.60
2019-05-19T21:20:56.601Z,14.60
2019-05-19T21:23:25.171Z,14.60
2019-05-19T21:25:53.717Z,14.70
2019-05-19T21:28:22.194Z,14.80
2019-05-19T21:31:04.524Z,14.80
2019-05-19T21:33:20.953Z,14.70
2019-05-19T21:35:49.522Z,14.50
2019-05-19T21:38:18.074Z,14.40
2019-05-19T21:40:46.709Z,14.20
2019-05-19T21:43:15.185Z,14.10
2019-05-19T21:45:43.762Z,14.00
2019-05-19T21:48:12.325Z,14.10
2019-05-19T21:50:40.889Z,14.10
2019-05-19T21:53:09.353Z,14.20
2019-05-19T21:55:37.921Z,14.10
2019-05-19T21:58:06.388Z,14.00
2019-05-19T22:00:35.225Z,14.10
2019-05-19T22:03:03.912Z,14.10
2019-05-19T22:05:32.478Z,14.00
2019-05-19T22:08:02.654Z,14.00
2019-05-19T22:10:31.233Z,14.20
2019-05-19T22:12:59.705Z,14.30
2019-05-19T22:15:28.282Z,14.20
2019-05-19T22:17:56.763Z,14.30
2019-05-19T22:20:25.411Z,14.40
2019-05-19T22:22:53.962Z,14.10
2019-05-19T22:25:22.533Z,13.90
2019-05-19T22:27:51.010Z,13.90
2019-05-19T22:30:19.697Z,13.90
2019-05-19T22:32:48.260Z,13.80
2019-05-19T22:35:16.869Z,14.00
2019-05-19T22:37:45.441Z,14.00
2019-05-19T22:40:14.052Z,14.10
2019-05-19T22:42:42.545Z,14.20
2019-05-19T22:45:11.258Z,14.10
2019-05-19T22:47:39.834Z,14.10
2019-05-19T22:50:09.118Z,14.10
2019-05-19T22:52:37.694Z,13.80
2019-05-19T22:55:06.801Z,13.60
2019-05-19T22:57:35.296Z,13.50
2019-05-19T23:00:05.576Z,13.50
2019-05-19T23:02:34.077Z,13.60
2019-05-19T23:05:02.590Z,13.70
2019-05-19T23:07:31.150Z,13.60
2019-05-19T23:09:59.705Z,13.70
2019-05-19T23:12:28.305Z,13.70
2019-05-19T23:14:56.849Z,13.40
2019-05-19T23:17:25.416Z,13.40
2019-05-19T23:19:53.957Z,13.40
2019-05-19T23:22:22.448Z,13.50
2019-05-19T23:24:51.003Z,13.30
2019-05-19T23:27:19.576Z,13.20
2019-05-19T23:29:48.549Z,13.10
2019-05-19T23:32:17.099Z,13.30
2019-05-19T23:34:45.649Z,13.10
2019-05-19T23:37:14.461Z,13.10
2019-05-19T23:39:43.081Z,13.30
2019-05-19T23:42:11.632Z,13.20
2019-05-19T23:44:40.182Z,13.00
2019-05-19T23:47:08.751Z,13.10
2019-05-19T23:49:37.233Z,13.20
2019-05-19T23:52:05.733Z,13.10
2019-05-19T23:54:34.210Z,12.90
2019-05-19T23:57:02.769Z,12.80
2019-05-19T23:59:31.247Z,12.90
